createdAt,value
2023-04-21T00:01:39.585Z,17.67
2023-04-21T00:04:07.126Z,19.55
2023-04-21T00:06:34.241Z,19.38
2023-04-21T00:09:01.075Z,18.13
2023-04-21T00:11:27.846Z,19.17
2023-04-21T00:13:54.626Z,17.13
2023-04-21T00:16:21.415Z,18.95
2023-04-21T00:18:48.234Z,18.00
2023-04-21T00:21:15.004Z,17.75
2023-04-21T00:23:41.841Z,18.77
2023-04-21T00:26:08.670Z,18.92
2023-04-21T00:28:35.490Z,18.13
2023-04-21T00:31:02.326Z,18.55
2023-04-21T00:33:29.124Z,18.42
2023-04-21T00:35:56.927Z,19.80
2023-04-21T00:38:23.692Z,20.00
2023-04-21T00:40:50.656Z,19.70
2023-04-21T00:43:17.413Z,19.15
2023-04-21T00:45:47.044Z,18.25
2023-04-21T00:48:13.971Z,18.77
2023-04-21T00:50:41.314Z,18.80
2023-04-21T00:53:09.091Z,18.50
2023-04-21T00:55:36.264Z,17.80
2023-04-21T00:58:03.910Z,18.73
2023-04-21T01:00:31.056Z,17.80
2023-04-21T01:03:00.004Z,18.20
2023-04-21T01:05:28.843Z,18.88
2023-04-21T01:07:55.597Z,18.70
2023-04-21T01:10:22.383Z,18.30
2023-04-21T01:12:49.428Z,18.27
2023-04-21T01:15:17.703Z,18.75
2023-04-21T01:17:45.270Z,18.42
2023-04-21T01:20:14.184Z,18.90
2023-04-21T01:22:42.849Z,17.90
2023-04-21T01:25:10.170Z,19.27
2023-04-21T01:27:37.186Z,19.23
2023-04-21T01:30:05.218Z,19.20
2023-04-21T01:32:32.254Z,19.08
2023-04-21T01:35:00.357Z,18.60
2023-04-21T01:37:30.876Z,17.77
2023-04-21T01:40:01.329Z,18.77
2023-04-21T01:42:29.689Z,18.30
2023-04-21T01:44:57.075Z,17.05
2023-04-21T01:47:25.336Z,18.08
2023-04-21T01:49:53.130Z,17.85
2023-04-21T01:52:20.490Z,18.73
2023-04-21T01:54:47.358Z,19.45
2023-04-21T01:57:14.305Z,18.65
2023-04-21T01:59:41.197Z,19.45
2023-04-21T02:02:08.398Z,18.10
2023-04-21T02:04:35.526Z,19.20
2023-04-21T02:07:02.618Z,17.88
2023-04-21T02:09:29.568Z,18.48
2023-04-21T02:12:00.411Z,18.23
2023-04-21T02:14:27.521Z,18.77
2023-04-21T02:16:56.155Z,18.02
2023-04-21T02:19:23.368Z,19.15
2023-04-21T02:21:50.282Z,18.50
2023-04-21T02:24:17.204Z,17.65
2023-04-21T02:26:43.963Z,18.70
2023-04-21T02:29:10.716Z,19.30
2023-04-21T02:31:49.614Z,19.25
2023-04-21T02:34:21.527Z,18.65
2023-04-21T02:36:48.324Z,19.23
2023-04-21T02:39:15.082Z,19.88
2023-04-21T02:41:41.923Z,19.60
2023-04-21T02:44:08.708Z,21.13
2023-04-21T02:46:35.491Z,19.35
2023-04-21T02:49:03.271Z,18.92
2023-04-21T02:51:30.066Z,21.17
2023-04-21T02:53:57.013Z,19.35
2023-04-21T02:56:23.831Z,19.75
2023-04-21T02:58:50.690Z,19.45
2023-04-21T03:01:17.622Z,20.45
2023-04-21T03:03:44.601Z,21.15
2023-04-21T03:06:11.578Z,21.48
2023-04-21T03:08:38.348Z,19.70
2023-04-21T03:11:05.246Z,20.92
2023-04-21T03:13:32.047Z,20.30
2023-04-21T03:15:58.805Z,20.73
2023-04-21T03:18:25.876Z,21.63
2023-04-21T03:20:52.937Z,20.60
2023-04-21T03:23:19.849Z,19.65
2023-04-21T03:25:46.593Z,20.75
2023-04-21T03:28:13.712Z,22.08
2023-04-21T03:30:40.536Z,22.27
2023-04-21T03:33:07.324Z,20.08
2023-04-21T03:35:34.490Z,21.55
2023-04-21T03:38:03.695Z,21.73
2023-04-21T03:40:30.836Z,20.77
2023-04-21T03:42:57.620Z,21.88
2023-04-21T03:45:24.624Z,21.90
2023-04-21T03:47:55.907Z,22.02
2023-04-21T03:50:23.484Z,20.35
2023-04-21T03:52:50.294Z,22.10
2023-04-21T03:55:17.237Z,19.88
2023-04-21T03:57:44.106Z,21.67
2023-04-21T04:00:11.679Z,21.65
2023-04-21T04:02:38.867Z,20.17
2023-04-21T04:05:06.369Z,20.63
2023-04-21T04:07:33.682Z,21.25
2023-04-21T04:10:00.719Z,18.95
2023-04-21T04:12:27.544Z,21.00
2023-04-21T04:14:54.306Z,20.73
2023-04-21T04:17:21.064Z,20.95
2023-04-21T04:19:47.816Z,20.75
2023-04-21T04:22:14.682Z,21.67
2023-04-21T04:24:41.426Z,20.40
2023-04-21T04:27:09.552Z,20.20
2023-04-21T04:29:36.304Z,21.63
2023-04-21T04:32:04.280Z,22.23
2023-04-21T04:34:31.084Z,21.88
2023-04-21T04:36:58.688Z,20.70
2023-04-21T04:39:25.851Z,20.63
2023-04-21T04:41:52.803Z,20.45
2023-04-21T04:44:19.874Z,21.08
2023-04-21T04:46:47.180Z,22.05
2023-04-21T04:49:13.975Z,22.40
2023-04-21T04:51:40.907Z,21.98
2023-04-21T04:54:07.679Z,22.65
2023-04-21T04:56:34.466Z,22.40
2023-04-21T04:59:01.327Z,21.65
2023-04-21T05:01:30.917Z,22.58
2023-04-21T05:03:58.290Z,21.23
2023-04-21T05:06:26.064Z,23.25
2023-04-21T05:08:52.833Z,23.05
2023-04-21T05:11:19.647Z,22.27
2023-04-21T05:13:46.407Z,22.02
2023-04-21T05:16:13.246Z,21.58
2023-04-21T05:18:40.134Z,21.58
2023-04-21T05:21:07.331Z,21.50
2023-04-21T05:23:34.274Z,22.20
2023-04-21T05:26:03.972Z,22.02
2023-04-21T05:28:31.987Z,21.50
2023-04-21T05:30:58.854Z,22.30
2023-04-21T05:33:26.989Z,21.90
2023-04-21T05:35:53.905Z,21.90
2023-04-21T05:38:20.864Z,22.65
2023-04-21T05:40:54.428Z,21.45
2023-04-21T05:43:21.387Z,21.75
2023-04-21T05:45:48.723Z,22.38
2023-04-21T05:48:15.644Z,22.48
2023-04-21T05:50:42.505Z,23.48
2023-04-21T05:53:09.461Z,22.98
2023-04-21T05:55:36.793Z,21.85
2023-04-21T05:58:04.287Z,21.10
2023-04-21T06:00:31.097Z,21.88
2023-04-21T06:02:58.030Z,21.05
2023-04-21T06:05:24.924Z,21.00
2023-04-21T06:07:51.788Z,18.73
2023-04-21T06:10:19.388Z,19.88
2023-04-21T06:12:46.272Z,19.90
2023-04-21T06:15:13.142Z,17.73
2023-04-21T06:17:40.018Z,19.90
2023-04-21T06:20:08.647Z,19.77
2023-04-21T06:22:35.512Z,18.60
2023-04-21T06:25:02.361Z,19.73
2023-04-21T06:27:29.308Z,18.07
2023-04-21T06:29:56.464Z,18.13
2023-04-21T06:32:23.550Z,16.87
2023-04-21T06:34:50.402Z,16.67
2023-04-21T06:37:17.200Z,17.23
2023-04-21T06:39:43.968Z,16.50
2023-04-21T06:42:10.929Z,15.83
2023-04-21T06:44:38.722Z,15.70
2023-04-21T06:47:05.788Z,16.00
2023-04-21T06:49:34.284Z,16.17
2023-04-21T06:52:01.097Z,15.20
2023-04-21T06:54:27.943Z,16.50
2023-04-21T06:56:54.954Z,15.03
2023-04-21T06:59:22.242Z,14.30
2023-04-21T07:01:52.391Z,14.47
2023-04-21T07:04:19.762Z,14.00
2023-04-21T07:06:47.543Z,14.57
2023-04-21T07:09:14.550Z,14.50
2023-04-21T07:11:41.397Z,13.53
2023-04-21T07:14:08.331Z,14.53
2023-04-21T07:16:35.212Z,15.10
2023-04-21T07:19:02.217Z,12.77
2023-04-21T07:21:31.003Z,14.47
2023-04-21T07:23:59.042Z,14.80
2023-04-21T07:26:25.947Z,14.00
2023-04-21T07:28:52.965Z,13.63
2023-04-21T07:31:19.891Z,13.50
2023-04-21T07:33:46.900Z,12.10
2023-04-21T07:36:13.748Z,12.43
2023-04-21T07:38:43.428Z,12.40
2023-04-21T07:41:12.042Z,13.60
2023-04-21T07:43:39.594Z,12.93
2023-04-21T07:46:07.849Z,13.30
2023-04-21T07:48:34.707Z,13.37
2023-04-21T07:51:03.332Z,13.23
2023-04-21T07:53:31.179Z,12.80
2023-04-21T07:55:58.403Z,12.10
2023-04-21T07:58:25.322Z,13.10
2023-04-21T08:00:52.132Z,11.77
2023-04-21T08:03:20.309Z,11.23
2023-04-21T08:05:48.458Z,12.47
2023-04-21T08:08:20.349Z,11.90
2023-04-21T08:10:47.379Z,12.57
2023-04-21T08:13:14.419Z,12.90
2023-04-21T08:15:41.280Z,11.87
2023-04-21T08:18:09.051Z,11.60
2023-04-21T08:20:36.168Z,11.43
2023-04-21T08:23:03.311Z,11.00
2023-04-21T08:25:31.078Z,10.13
2023-04-21T08:27:58.015Z,9.20
2023-04-21T08:30:29.004Z,10.00
2023-04-21T08:32:56.000Z,10.43
2023-04-21T08:35:22.986Z,10.70
2023-04-21T08:37:51.014Z,11.13
2023-04-21T08:40:19.702Z,11.70
2023-04-21T08:42:48.888Z,12.03
2023-04-21T08:45:16.753Z,11.40
2023-04-21T08:47:44.258Z,12.00
2023-04-21T08:50:14.764Z,12.20
2023-04-21T08:52:41.753Z,9.93
2023-04-21T08:55:11.397Z,8.50
2023-04-21T08:57:38.565Z,8.27
2023-04-21T09:00:08.041Z,7.97
2023-04-21T09:03:01.804Z,8.43
2023-04-21T09:05:31.872Z,9.40
2023-04-21T09:08:18.394Z,10.40
2023-04-21T09:10:47.797Z,11.40
2023-04-21T09:13:14.733Z,11.40
2023-04-21T09:15:42.474Z,10.67
2023-04-21T09:18:21.165Z,11.53
2023-04-21T09:20:51.474Z,10.70
2023-04-21T09:23:20.958Z,11.83
2023-04-21T09:25:47.916Z,10.87
2023-04-21T09:28:15.061Z,11.20
2023-04-21T09:30:43.359Z,12.23
2023-04-21T09:33:29.531Z,12.60
2023-04-21T09:36:02.906Z,12.40
2023-04-21T09:38:29.692Z,11.90
2023-04-21T09:41:00.117Z,11.30
2023-04-21T09:43:27.068Z,11.87
2023-04-21T09:45:56.037Z,10.63
2023-04-21T09:48:28.682Z,9.50
2023-04-21T09:53:28.786Z,10.10
2023-04-21T09:55:58.743Z,9.80
2023-04-21T09:58:28.318Z,10.30
2023-04-21T10:00:56.878Z,9.70
2023-04-21T10:03:28.830Z,9.03
2023-04-21T10:05:55.948Z,10.93
2023-04-21T10:08:23.029Z,10.73
2023-04-21T10:10:50.539Z,9.10
2023-04-21T10:13:18.787Z,8.63
2023-04-21T10:15:45.651Z,8.50
2023-04-21T10:18:23.705Z,8.10
2023-04-21T10:20:58.003Z,9.00
2023-04-21T10:23:39.632Z,8.50
2023-04-21T10:26:21.208Z,9.07
2023-04-21T10:29:02.380Z,9.67
2023-04-21T10:31:42.214Z,8.73
2023-04-21T10:34:09.239Z,9.80
2023-04-21T10:36:45.928Z,10.93
2023-04-21T10:39:37.076Z,8.60
2023-04-21T10:42:13.024Z,9.93
2023-04-21T10:44:43.917Z,9.87
2023-04-21T10:47:11.426Z,10.07
2023-04-21T10:49:40.073Z,10.20
2023-04-21T10:52:12.229Z,10.57
2023-04-21T10:54:42.231Z,10.60
2023-04-21T10:57:11.614Z,10.90
2023-04-21T10:59:39.030Z,10.00
2023-04-21T11:02:12.272Z,10.57
2023-04-21T11:04:47.842Z,10.80
2023-04-21T11:07:20.678Z,11.20
2023-04-21T11:09:48.602Z,11.10
2023-04-21T11:12:20.452Z,10.53
2023-04-21T11:14:48.277Z,8.57
2023-04-21T11:17:20.175Z,8.93
2023-04-21T11:19:50.051Z,10.30
2023-04-21T11:22:19.112Z,9.77
2023-04-21T11:24:48.263Z,9.97
2023-04-21T11:27:15.554Z,10.63
2023-04-21T11:29:42.931Z,9.03
2023-04-21T11:32:09.875Z,10.00
2023-04-21T11:34:40.043Z,10.50
2023-04-21T11:37:14.261Z,10.00
2023-04-21T11:39:41.989Z,9.73
2023-04-21T11:42:08.776Z,10.80
2023-04-21T11:44:42.315Z,9.43
2023-04-21T11:47:21.139Z,10.53
2023-04-21T11:49:54.516Z,10.37
2023-04-21T11:52:21.604Z,10.33
2023-04-21T11:54:48.603Z,10.27
2023-04-21T11:57:19.182Z,8.83
2023-04-21T11:59:47.936Z,8.87
2023-04-21T12:02:23.604Z,9.87
2023-04-21T12:05:13.565Z,8.80
2023-04-21T12:07:45.171Z,7.50
2023-04-21T12:10:20.297Z,8.10
2023-04-21T12:12:48.212Z,7.73
2023-04-21T12:15:20.483Z,8.03
2023-04-21T12:17:52.183Z,9.63
2023-04-21T12:20:21.068Z,9.90
2023-04-21T12:22:48.935Z,9.10
2023-04-21T12:25:16.237Z,9.30
2023-04-21T12:27:49.688Z,8.83
2023-04-21T12:30:17.340Z,7.70
2023-04-21T12:32:44.687Z,6.80
2023-04-21T12:35:11.588Z,6.63
2023-04-21T12:37:38.399Z,7.97
2023-04-21T12:40:05.897Z,7.83
2023-04-21T12:42:33.890Z,6.53
2023-04-21T12:45:01.990Z,5.57
2023-04-21T12:47:28.851Z,5.30
2023-04-21T12:49:55.598Z,3.90
2023-04-21T12:52:22.412Z,3.60
2023-04-21T12:54:49.204Z,3.33
2023-04-21T12:57:16.050Z,3.23
2023-04-21T12:59:44.890Z,2.20
2023-04-21T13:02:13.310Z,2.40
2023-04-21T13:04:42.157Z,1.73
2023-04-21T13:07:09.379Z,1.80
2023-04-21T13:09:36.252Z,1.90
2023-04-21T13:12:03.151Z,1.90
2023-04-21T13:14:30.347Z,2.17
2023-04-21T13:16:57.388Z,2.53
2023-04-21T13:19:24.343Z,2.37
2023-04-21T13:21:53.984Z,2.17
2023-04-21T13:24:21.679Z,2.20
2023-04-21T13:26:48.583Z,2.03
2023-04-21T13:29:15.541Z,1.77
2023-04-21T13:31:42.336Z,2.20
2023-04-21T13:34:09.172Z,1.90
2023-04-21T13:36:36.020Z,1.57
2023-04-21T13:39:05.677Z,2.43
2023-04-21T13:41:32.695Z,2.37
2023-04-21T13:43:59.528Z,2.47
2023-04-21T13:46:26.495Z,2.40
2023-04-21T13:48:53.844Z,2.53
2023-04-21T13:51:20.989Z,2.53
2023-04-21T13:53:48.128Z,2.60
2023-04-21T13:56:15.084Z,2.40
2023-04-21T13:58:42.134Z,2.33
2023-04-21T14:01:09.150Z,2.93
2023-04-21T14:03:36.151Z,2.30
2023-04-21T14:06:03.229Z,2.60
2023-04-21T14:08:30.055Z,2.50
2023-04-21T14:10:57.883Z,2.03
2023-04-21T14:13:37.285Z,2.60
2023-04-21T14:16:09.290Z,2.60
2023-04-21T14:18:37.893Z,2.43
2023-04-21T14:21:04.853Z,2.30
2023-04-21T14:23:31.760Z,2.17
2023-04-21T14:25:58.665Z,2.20
2023-04-21T14:28:25.544Z,2.10
2023-04-21T14:30:52.329Z,2.00
2023-04-21T14:33:19.228Z,1.93
2023-04-21T14:35:46.384Z,2.20
2023-04-21T14:38:13.369Z,2.10
2023-04-21T14:40:40.312Z,1.90
2023-04-21T14:43:07.092Z,1.90
2023-04-21T14:45:33.911Z,1.90
2023-04-21T14:48:00.956Z,2.23
2023-04-21T14:50:27.730Z,2.03
2023-04-21T14:52:54.901Z,2.40
2023-04-21T14:55:21.656Z,1.90
2023-04-21T14:57:48.574Z,1.83
2023-04-21T15:00:15.718Z,2.10
2023-04-21T15:02:42.708Z,1.60
2023-04-21T15:05:10.114Z,2.00
2023-04-21T15:07:37.095Z,1.90
2023-04-21T15:10:04.123Z,1.80
2023-04-21T15:12:31.009Z,2.00
2023-04-21T15:14:57.932Z,2.30
2023-04-21T15:17:24.786Z,2.50
2023-04-21T15:19:51.743Z,2.40
2023-04-21T15:22:18.985Z,2.30
2023-04-21T15:24:46.483Z,2.70
2023-04-21T15:27:13.297Z,2.10
2023-04-21T15:29:40.423Z,2.53
2023-04-21T15:32:07.499Z,2.60
2023-04-21T15:34:34.330Z,2.40
2023-04-21T15:37:01.473Z,2.60
2023-04-21T15:39:28.310Z,2.83
2023-04-21T15:41:55.264Z,3.27
2023-04-21T15:44:22.179Z,2.60
2023-04-21T15:46:49.199Z,2.53
2023-04-21T15:49:16.148Z,2.50
2023-04-21T15:51:43.146Z,2.30
2023-04-21T15:54:10.536Z,2.20
2023-04-21T15:56:37.344Z,3.00
2023-04-21T15:59:04.810Z,2.40
2023-04-21T16:01:31.712Z,2.20
2023-04-21T16:03:59.266Z,2.57
2023-04-21T16:06:29.367Z,2.70
2023-04-21T16:08:56.772Z,2.83
2023-04-21T16:11:25.109Z,3.23
2023-04-21T16:13:52.409Z,2.63
2023-04-21T16:16:19.397Z,2.57
2023-04-21T16:18:46.308Z,2.93
2023-04-21T16:21:13.239Z,2.83
2023-04-21T16:23:40.531Z,2.67
2023-04-21T16:26:09.078Z,2.87
2023-04-21T16:28:36.237Z,2.30
2023-04-21T16:31:03.438Z,2.60
2023-04-21T16:33:30.861Z,2.90
2023-04-21T16:35:57.858Z,3.10
2023-04-21T16:38:25.051Z,2.70
2023-04-21T16:40:52.041Z,3.10
2023-04-21T16:43:19.090Z,3.50
2023-04-21T16:45:46.191Z,3.13
2023-04-21T16:48:13.257Z,3.00
2023-04-21T16:50:41.942Z,2.80
2023-04-21T16:53:09.032Z,3.03
2023-04-21T16:55:35.996Z,3.47
2023-04-21T16:58:02.821Z,2.87
2023-04-21T17:00:30.459Z,2.90
2023-04-21T17:02:57.778Z,2.80
2023-04-21T17:05:24.881Z,3.00
2023-04-21T17:07:51.772Z,2.50
2023-04-21T17:10:18.617Z,3.23
2023-04-21T17:12:46.233Z,2.70
2023-04-21T17:15:13.307Z,2.80
2023-04-21T17:17:47.002Z,3.60
2023-04-21T17:20:14.572Z,3.23
2023-04-21T17:22:42.058Z,3.50
2023-04-21T17:25:10.037Z,4.03
2023-04-21T17:27:38.339Z,3.17
2023-04-21T17:30:06.387Z,3.73
2023-04-21T17:32:34.274Z,3.20
2023-04-21T17:35:01.621Z,4.10
2023-04-21T17:37:29.569Z,3.73
2023-04-21T17:39:56.569Z,4.47
2023-04-21T17:42:23.431Z,3.60
2023-04-21T17:44:50.264Z,3.57
2023-04-21T17:47:17.092Z,4.47
2023-04-21T17:49:44.116Z,4.50
2023-04-21T17:52:11.302Z,4.47
2023-04-21T17:54:38.329Z,4.20
2023-04-21T17:57:06.791Z,4.70
2023-04-21T17:59:33.745Z,4.43
2023-04-21T18:02:01.030Z,4.67
2023-04-21T18:04:30.773Z,3.90
2023-04-21T18:06:58.950Z,4.10
2023-04-21T18:09:26.203Z,4.00
2023-04-21T18:11:53.058Z,4.37
2023-04-21T18:14:20.272Z,4.30
2023-04-21T18:16:47.223Z,4.33
2023-04-21T18:19:14.317Z,3.70
2023-04-21T18:21:41.105Z,4.60
2023-04-21T18:24:07.928Z,5.07
2023-04-21T18:26:35.310Z,4.20
2023-04-21T18:29:03.009Z,5.33
2023-04-21T18:31:30.098Z,5.07
2023-04-21T18:33:57.159Z,4.80
2023-04-21T18:36:24.244Z,4.90
2023-04-21T18:38:51.104Z,5.20
2023-04-21T18:41:17.949Z,4.40
2023-04-21T18:43:44.754Z,5.60
2023-04-21T18:46:11.745Z,5.00
2023-04-21T18:48:38.643Z,5.10
2023-04-21T18:51:05.664Z,4.43
2023-04-21T18:53:32.593Z,4.57
2023-04-21T18:55:59.476Z,4.17
2023-04-21T18:58:26.482Z,4.47
2023-04-21T19:00:53.436Z,4.70
2023-04-21T19:03:20.495Z,4.60
2023-04-21T19:05:47.503Z,4.10
2023-04-21T19:08:14.713Z,4.23
2023-04-21T19:10:41.595Z,5.50
2023-04-21T19:13:08.996Z,5.00
2023-04-21T19:15:36.074Z,4.57
2023-04-21T19:18:02.992Z,4.40
2023-04-21T19:20:30.700Z,4.90
2023-04-21T19:22:57.621Z,4.47
2023-04-21T19:25:24.478Z,5.10
2023-04-21T19:27:51.577Z,4.30
2023-04-21T19:30:18.524Z,2.57
2023-04-21T19:32:45.526Z,2.13
2023-04-21T19:35:12.524Z,2.50
2023-04-21T19:37:39.340Z,1.73
2023-04-21T19:40:08.077Z,1.40
2023-04-21T19:42:34.870Z,1.27
2023-04-21T19:45:02.078Z,1.20
2023-04-21T19:47:29.347Z,1.03
2023-04-21T19:49:56.518Z,1.20
2023-04-21T19:52:23.334Z,1.00
2023-04-21T19:54:50.098Z,1.10
2023-04-21T19:57:17.525Z,1.23
2023-04-21T19:59:44.374Z,1.20
2023-04-21T20:02:11.243Z,1.10
2023-04-21T20:04:38.317Z,0.90
2023-04-21T20:07:05.769Z,1.20
2023-04-21T20:09:32.555Z,1.00
2023-04-21T20:11:59.410Z,1.20
2023-04-21T20:14:26.233Z,1.07
2023-04-21T20:16:53.096Z,1.20
2023-04-21T20:19:22.879Z,1.30
2023-04-21T20:21:50.193Z,1.10
2023-04-21T20:24:17.303Z,1.10
2023-04-21T20:26:44.521Z,1.10
2023-04-21T20:29:11.421Z,1.10
2023-04-21T20:31:38.342Z,1.20
2023-04-21T20:34:05.534Z,1.30
2023-04-21T20:36:32.627Z,1.40
2023-04-21T20:39:00.630Z,1.23
2023-04-21T20:41:27.902Z,1.20
2023-04-21T20:43:56.259Z,1.30
2023-04-21T20:46:23.841Z,1.57
2023-04-21T20:48:51.545Z,1.30
2023-04-21T20:51:18.566Z,1.57
2023-04-21T20:53:45.472Z,1.30
2023-04-21T20:56:12.382Z,1.40
2023-04-21T20:58:39.244Z,1.27
2023-04-21T21:01:06.158Z,1.43
2023-04-21T21:03:33.224Z,1.47
2023-04-21T21:06:00.379Z,1.57
2023-04-21T21:08:28.112Z,1.20
2023-04-21T21:10:54.986Z,1.40
2023-04-21T21:13:21.887Z,1.50
2023-04-21T21:15:48.753Z,1.60
2023-04-21T21:18:15.723Z,1.60
2023-04-21T21:20:42.980Z,1.50
2023-04-21T21:23:09.977Z,1.30
2023-04-21T21:25:36.850Z,1.33
2023-04-21T21:28:04.085Z,1.80
2023-04-21T21:30:30.998Z,1.67
2023-04-21T21:32:57.900Z,1.60
2023-04-21T21:35:24.886Z,1.47
2023-04-21T21:37:51.740Z,1.40
2023-04-21T21:40:18.600Z,1.60
2023-04-21T21:42:45.471Z,1.50
2023-04-21T21:45:12.413Z,1.60
2023-04-21T21:47:41.919Z,1.63
2023-04-21T21:50:12.656Z,1.80
2023-04-21T21:52:39.625Z,1.77
2023-04-21T21:55:07.352Z,1.60
2023-04-21T21:57:34.573Z,1.70
2023-04-21T22:00:02.215Z,1.37
2023-04-21T22:02:29.298Z,1.50
2023-04-21T22:04:58.367Z,1.50
2023-04-21T22:07:25.414Z,1.90
2023-04-21T22:09:52.818Z,1.70
2023-04-21T22:12:19.708Z,1.60
2023-04-21T22:14:47.116Z,2.20
2023-04-21T22:17:14.582Z,2.10
2023-04-21T22:19:41.876Z,1.83
2023-04-21T22:22:08.844Z,2.20
2023-04-21T22:24:35.702Z,2.40
2023-04-21T22:27:02.711Z,2.30
2023-04-21T22:29:29.564Z,2.00
2023-04-21T22:31:56.362Z,2.13
2023-04-21T22:34:24.125Z,2.00
2023-04-21T22:36:52.093Z,2.23
2023-04-21T22:39:19.329Z,2.20
2023-04-21T22:41:46.214Z,2.13
2023-04-21T22:44:14.201Z,1.93
2023-04-21T22:46:41.149Z,1.77
2023-04-21T22:49:09.213Z,2.27
2023-04-21T22:51:36.378Z,2.53
2023-04-21T22:54:03.549Z,2.47
2023-04-21T22:56:31.289Z,2.60
2023-04-21T22:58:58.152Z,2.00
2023-04-21T23:01:25.141Z,2.33
2023-04-21T23:03:52.273Z,1.97
2023-04-21T23:06:20.347Z,2.77
2023-04-21T23:08:47.236Z,2.43
2023-04-21T23:11:14.266Z,2.17
2023-04-21T23:13:41.440Z,2.30
2023-04-21T23:16:08.314Z,2.90
2023-04-21T23:18:35.954Z,2.95
2023-04-21T23:21:03.062Z,2.90
2023-04-21T23:23:30.013Z,3.30
2023-04-21T23:25:56.834Z,2.90
2023-04-21T23:28:24.401Z,2.57
2023-04-21T23:30:51.244Z,2.30
2023-04-21T23:33:18.092Z,2.30
2023-04-21T23:35:44.951Z,2.87
2023-04-21T23:38:11.766Z,2.47
2023-04-21T23:40:38.597Z,2.90
2023-04-21T23:43:05.534Z,2.33
2023-04-21T23:45:32.366Z,2.40
2023-04-21T23:47:59.287Z,2.33
2023-04-21T23:50:26.126Z,2.60
2023-04-21T23:52:52.976Z,2.57
2023-04-21T23:55:19.888Z,2.90
2023-04-21T23:57:47.088Z,2.67
